createdAt,value
2016-11-24T00:00:09.927Z,0
2016-11-24T00:01:19.965Z,0
2016-11-24T00:02:30.016Z,0
2016-11-24T00:03:40.367Z,0
2016-11-24T00:04:50.726Z,0
2016-11-24T00:06:01.074Z,0
2016-11-24T00:07:11.442Z,0
2016-11-24T00:08:21.171Z,0
2016-11-24T00:09:31.517Z,0
2016-11-24T00:10:41.588Z,0
2016-11-24T00:11:51.929Z,0
2016-11-24T00:13:01.958Z,0
2016-11-24T00:14:12.507Z,0
2016-11-24T00:15:22.224Z,0
2016-11-24T00:16:31.992Z,0
2016-11-24T00:17:42.344Z,0
2016-11-24T00:18:52.702Z,0
2016-11-24T00:20:02.749Z,0
2016-11-24T00:21:13.109Z,0
2016-11-24T00:22:23.175Z,0
2016-11-24T00:23:33.501Z,0
2016-11-24T00:24:43.528Z,0
2016-11-24T00:25:53.866Z,0
2016-11-24T00:27:04.222Z,0
2016-11-24T00:28:13.951Z,0
2016-11-24T00:29:23.687Z,0
2016-11-24T00:30:33.719Z,0
2016-11-24T00:31:43.766Z,0
2016-11-24T00:32:54.138Z,0
2016-11-24T00:34:04.226Z,0
2016-11-24T00:35:14.576Z,0
2016-11-24T00:36:24.930Z,0
2016-11-24T00:37:35.326Z,0
2016-11-24T00:38:45.665Z,0
2016-11-24T00:39:56.026Z,0
2016-11-24T00:41:06.383Z,0
2016-11-24T00:42:16.440Z,0
2016-11-24T00:43:26.491Z,0
2016-11-24T00:44:36.834Z,0
2016-11-24T00:45:47.247Z,0
2016-11-24T00:46:57.284Z,0
2016-11-24T00:48:07.336Z,0
2016-11-24T00:49:17.087Z,0
2016-11-24T00:50:27.140Z,0
2016-11-24T00:51:37.173Z,0
2016-11-24T00:52:47.529Z,0
2016-11-24T00:53:57.257Z,0
2016-11-24T00:55:07.588Z,0
2016-11-24T00:56:17.933Z,0
2016-11-24T00:57:28.022Z,0
2016-11-24T00:58:38.363Z,0
2016-11-24T00:59:48.708Z,0
2016-11-24T01:00:58.736Z,0
2016-11-24T01:02:09.096Z,0
2016-11-24T01:03:19.134Z,0
2016-11-24T01:04:29.472Z,0
2016-11-24T01:05:39.183Z,0
2016-11-24T01:06:49.207Z,0
2016-11-24T01:07:59.580Z,0
2016-11-24T01:09:09.611Z,0
2016-11-24T01:10:19.965Z,0
2016-11-24T01:11:30.311Z,0
2016-11-24T01:12:40.665Z,0
2016-11-24T01:13:51.024Z,0
2016-11-24T01:15:01.101Z,0
2016-11-24T01:16:11.448Z,0
2016-11-24T01:17:21.793Z,0
2016-11-24T01:18:31.511Z,0
2016-11-24T01:19:41.856Z,0
2016-11-24T01:20:51.899Z,0
2016-11-24T01:22:01.962Z,0
2016-11-24T01:23:12.325Z,0
2016-11-24T01:24:22.377Z,0
2016-11-24T01:25:32.749Z,0
2016-11-24T01:26:42.783Z,0
2016-11-24T01:27:52.511Z,0
2016-11-24T01:29:02.862Z,0
2016-11-24T01:30:11.967Z,0
2016-11-24T01:31:22.325Z,0
2016-11-24T01:32:32.662Z,0
2016-11-24T01:33:43.004Z,0
2016-11-24T01:34:53.353Z,0
2016-11-24T01:36:03.099Z,0
2016-11-24T01:37:13.143Z,0
2016-11-24T01:38:23.239Z,0
2016-11-24T01:39:33.266Z,0
2016-11-24T01:40:43.313Z,0
2016-11-24T01:41:53.055Z,0
2016-11-24T01:43:03.098Z,0
2016-11-24T01:44:13.442Z,0
2016-11-24T01:45:23.481Z,0
2016-11-24T01:46:33.868Z,0
2016-11-24T01:47:43.904Z,0
2016-11-24T01:48:54.239Z,0
2016-11-24T01:50:04.639Z,0
2016-11-24T01:51:14.679Z,0
2016-11-24T01:52:24.723Z,0
2016-11-24T01:53:35.072Z,0
2016-11-24T01:54:45.430Z,0
2016-11-24T01:55:55.448Z,0
2016-11-24T01:57:05.792Z,0
2016-11-24T01:58:15.513Z,0
2016-11-24T01:59:25.556Z,0
2016-11-24T02:00:35.951Z,0
2016-11-24T02:01:46.277Z,0
2016-11-24T02:02:56.630Z,0
2016-11-24T02:04:06.679Z,0
2016-11-24T02:05:16.712Z,0
2016-11-24T02:06:26.477Z,0
2016-11-24T02:07:36.524Z,0
2016-11-24T02:08:46.884Z,0
2016-11-24T02:09:57.240Z,0
2016-11-24T02:11:06.636Z,0
2016-11-24T02:12:16.991Z,0
2016-11-24T02:13:27.026Z,0
2016-11-24T02:14:37.047Z,0
2016-11-24T02:15:46.771Z,0
2016-11-24T02:16:57.101Z,0
2016-11-24T02:18:06.814Z,0
2016-11-24T02:19:17.160Z,0
2016-11-24T02:20:26.887Z,0
2016-11-24T02:21:37.232Z,0
2016-11-24T02:22:47.583Z,0
2016-11-24T02:23:57.952Z,0
2016-11-24T02:25:07.999Z,0
2016-11-24T02:26:18.349Z,0
2016-11-24T02:27:28.383Z,0
2016-11-24T02:28:38.772Z,0
2016-11-24T02:29:48.497Z,0
2016-11-24T02:30:58.838Z,0
2016-11-24T02:32:09.199Z,0
2016-11-24T02:33:19.241Z,0
2016-11-24T02:34:29.573Z,0
2016-11-24T02:35:39.928Z,0
2016-11-24T02:36:50.282Z,0
2016-11-24T02:38:00.346Z,0
2016-11-24T02:39:10.679Z,0
2016-11-24T02:40:20.396Z,0
2016-11-24T02:41:30.428Z,0
2016-11-24T02:42:40.790Z,0
2016-11-24T02:43:50.834Z,0
2016-11-24T02:45:00.546Z,0
2016-11-24T02:46:10.272Z,0
2016-11-24T02:47:20.308Z,0
2016-11-24T02:48:30.655Z,0
2016-11-24T02:49:40.689Z,0
2016-11-24T02:50:51.033Z,0
2016-11-24T02:52:01.098Z,0
2016-11-24T02:53:11.443Z,0
2016-11-24T02:54:21.461Z,0
2016-11-24T02:55:31.191Z,0
2016-11-24T02:56:41.541Z,0
2016-11-24T02:57:50.633Z,0
2016-11-24T02:59:00.657Z,0
2016-11-24T03:00:11.011Z,0
2016-11-24T03:01:21.038Z,0
2016-11-24T03:32:42.814Z,0
2016-11-24T03:33:53.135Z,0
2016-11-24T03:35:03.469Z,0
2016-11-24T03:36:13.842Z,0
2016-11-24T03:37:24.185Z,0
2016-11-24T03:38:34.208Z,0
2016-11-24T03:39:44.567Z,0
2016-11-24T03:40:54.888Z,0
2016-11-24T03:42:05.494Z,0
2016-11-24T03:43:15.828Z,0
2016-11-24T03:44:25.871Z,0
2016-11-24T03:45:35.906Z,0
2016-11-24T03:46:45.932Z,0
2016-11-24T03:47:56.269Z,0
2016-11-24T03:49:06.295Z,0
2016-11-24T03:50:16.637Z,0
2016-11-24T03:51:26.990Z,0
2016-11-24T03:52:36.714Z,0
2016-11-24T03:53:46.989Z,0
2016-11-24T03:54:57.037Z,0
2016-11-24T03:56:06.431Z,0
2016-11-24T03:57:16.463Z,0
2016-11-24T03:58:26.500Z,0
2016-11-24T03:59:36.585Z,0
2016-11-24T04:00:46.925Z,0
2016-11-24T04:01:57.517Z,0
2016-11-24T04:03:07.862Z,0
2016-11-24T04:04:17.927Z,0
2016-11-24T04:05:28.306Z,0
2016-11-24T04:06:38.341Z,0
2016-11-24T04:07:48.709Z,0
2016-11-24T04:08:58.736Z,0
2016-11-24T04:10:09.077Z,0
2016-11-24T04:11:19.120Z,0
2016-11-24T04:12:28.835Z,0
2016-11-24T04:13:38.887Z,0
2016-11-24T04:14:48.602Z,0
2016-11-24T04:15:58.983Z,0
2016-11-24T04:17:09.012Z,0
2016-11-24T04:18:19.061Z,0
2016-11-24T04:19:29.128Z,0
2016-11-24T04:20:39.468Z,0
2016-11-24T04:21:50.044Z,0
2016-11-24T04:23:00.099Z,0
2016-11-24T04:24:10.151Z,0
2016-11-24T04:25:20.517Z,0
2016-11-24T04:26:30.231Z,0
2016-11-24T04:27:40.267Z,0
2016-11-24T04:28:50.325Z,0
2016-11-24T04:30:00.391Z,0
2016-11-24T04:31:10.732Z,0
2016-11-24T04:32:21.070Z,0
2016-11-24T04:33:31.106Z,0
2016-11-24T04:34:41.459Z,0
2016-11-24T04:35:51.174Z,0
2016-11-24T04:37:00.901Z,0
2016-11-24T04:38:10.659Z,0
2016-11-24T04:39:21.036Z,0
2016-11-24T04:40:31.374Z,0
2016-11-24T04:41:41.427Z,0
2016-11-24T04:42:51.480Z,0
2016-11-24T04:44:01.517Z,0
2016-11-24T04:45:11.249Z,0
2016-11-24T04:46:20.966Z,0
2016-11-24T04:47:31.007Z,0
2016-11-24T04:48:41.345Z,0
2016-11-24T04:49:51.388Z,0
2016-11-24T04:51:01.758Z,0
2016-11-24T04:52:11.801Z,0
2016-11-24T04:53:21.529Z,0
2016-11-24T04:54:31.553Z,0
2016-11-24T04:55:41.589Z,0
2016-11-24T04:56:51.615Z,0
2016-11-24T04:58:01.644Z,0
2016-11-24T04:59:11.664Z,0
2016-11-24T05:00:21.715Z,0
2016-11-24T05:01:31.736Z,0
2016-11-24T05:02:41.785Z,0
2016-11-24T05:03:51.489Z,0
2016-11-24T05:05:01.208Z,0
2016-11-24T05:06:10.928Z,0
2016-11-24T05:07:21.277Z,0
2016-11-24T05:08:31.323Z,0
2016-11-24T05:09:40.737Z,0
2016-11-24T05:10:51.092Z,0
2016-11-24T05:12:01.497Z,0
2016-11-24T05:13:11.544Z,0
2016-11-24T05:14:21.270Z,0
2016-11-24T05:15:31.610Z,0
2016-11-24T05:16:41.967Z,0
2016-11-24T05:17:52.321Z,0
2016-11-24T05:19:02.671Z,0
2016-11-24T05:20:12.697Z,0
2016-11-24T05:21:23.040Z,0
2016-11-24T05:22:33.072Z,0
2016-11-24T05:23:43.105Z,0
2016-11-24T05:24:52.826Z,0
2016-11-24T05:26:02.256Z,0
2016-11-24T05:27:11.656Z,0
2016-11-24T05:28:21.706Z,0
2016-11-24T05:29:32.043Z,0
2016-11-24T05:30:41.763Z,0
2016-11-24T05:31:52.108Z,0
2016-11-24T05:33:02.454Z,0
2016-11-24T05:34:12.179Z,0
2016-11-24T05:35:22.555Z,0
2016-11-24T05:36:31.955Z,0
2016-11-24T05:37:42.010Z,0
2016-11-24T05:38:51.734Z,0
2016-11-24T05:40:01.777Z,0
2016-11-24T05:41:11.838Z,0
2016-11-24T05:42:21.865Z,0
2016-11-24T05:43:32.123Z,0
2016-11-24T05:44:42.480Z,0
2016-11-24T05:45:52.532Z,4
2016-11-24T05:47:02.308Z,4
2016-11-24T05:48:12.640Z,4
2016-11-24T05:49:22.674Z,4
2016-11-24T05:50:32.712Z,4
2016-11-24T05:51:43.064Z,0
2016-11-24T05:52:53.159Z,0
2016-11-24T05:54:02.905Z,4
2016-11-24T05:55:12.943Z,4
2016-11-24T05:56:23.008Z,4
2016-11-24T05:57:33.378Z,4
2016-11-24T05:58:43.095Z,4
2016-11-24T05:59:53.428Z,8
2016-11-24T06:01:03.148Z,8
2016-11-24T06:02:12.874Z,8
2016-11-24T06:03:22.929Z,12
2016-11-24T06:04:32.953Z,12
2016-11-24T06:05:43.042Z,12
2016-11-24T06:06:53.410Z,16
2016-11-24T06:08:03.474Z,16
2016-11-24T06:09:13.825Z,20
2016-11-24T06:10:23.548Z,20
2016-11-24T06:11:33.614Z,24
2016-11-24T06:12:43.652Z,24
2016-11-24T06:13:54.028Z,28
2016-11-24T06:15:04.372Z,28
2016-11-24T06:16:14.720Z,32
2016-11-24T06:17:25.071Z,32
2016-11-24T06:18:35.421Z,32
2016-11-24T06:19:45.136Z,36
2016-11-24T06:20:55.479Z,40
2016-11-24T06:22:05.513Z,48
2016-11-24T06:23:15.530Z,52
2016-11-24T06:24:24.918Z,52
2016-11-24T06:25:35.274Z,60
2016-11-24T06:26:45.618Z,64
2016-11-24T06:27:55.984Z,72
2016-11-24T06:29:06.348Z,76
2016-11-24T06:30:16.706Z,84
2016-11-24T06:31:26.425Z,92
2016-11-24T06:32:36.773Z,96
2016-11-24T06:33:46.784Z,108
2016-11-24T06:34:56.827Z,116
2016-11-24T06:36:07.161Z,120
2016-11-24T06:37:16.886Z,128
2016-11-24T06:38:26.926Z,136
2016-11-24T06:39:37.307Z,152
2016-11-24T06:40:47.649Z,160
2016-11-24T06:41:57.685Z,176
2016-11-24T06:43:07.105Z,192
2016-11-24T06:44:17.455Z,204
2016-11-24T06:45:27.496Z,200
2016-11-24T06:46:37.227Z,192
2016-11-24T06:47:47.280Z,196
2016-11-24T06:48:57.648Z,212
2016-11-24T06:50:07.057Z,224
2016-11-24T06:51:17.090Z,228
2016-11-24T06:52:27.433Z,236
2016-11-24T06:53:37.789Z,240
2016-11-24T06:54:48.128Z,240
2016-11-24T06:55:58.178Z,248
2016-11-24T06:57:08.530Z,268
2016-11-24T06:58:18.560Z,292
2016-11-24T06:59:28.907Z,304
2016-11-24T07:00:39.263Z,308
2016-11-24T07:01:49.602Z,312
2016-11-24T07:02:59.942Z,308
2016-11-24T07:04:10.304Z,308
2016-11-24T07:05:20.651Z,316
2016-11-24T07:06:30.684Z,332
2016-11-24T07:07:41.019Z,360
2016-11-24T07:08:51.043Z,392
2016-11-24T07:10:01.058Z,416
2016-11-24T07:11:11.101Z,412
2016-11-24T07:12:20.826Z,424
2016-11-24T07:13:30.876Z,448
2016-11-24T07:14:40.904Z,436
2016-11-24T07:15:50.937Z,428
2016-11-24T07:17:01.295Z,436
2016-11-24T07:18:11.321Z,448
2016-11-24T07:19:21.400Z,444
2016-11-24T07:20:31.448Z,424
2016-11-24T07:21:41.788Z,428
2016-11-24T07:22:51.832Z,448
2016-11-24T07:24:01.542Z,452
2016-11-24T07:25:11.876Z,452
2016-11-24T07:26:22.217Z,440
2016-11-24T07:27:32.561Z,436
2016-11-24T07:28:42.582Z,420
2016-11-24T07:29:52.613Z,428
2016-11-24T07:31:02.954Z,452
2016-11-24T07:32:12.681Z,472
2016-11-24T07:33:22.718Z,468
2016-11-24T07:34:33.061Z,500
2016-11-24T07:35:42.792Z,520
2016-11-24T07:36:52.839Z,492
2016-11-24T07:38:02.870Z,472
2016-11-24T07:39:12.311Z,448
2016-11-24T07:40:22.643Z,452
2016-11-24T07:41:32.704Z,452
2016-11-24T07:42:42.731Z,456
2016-11-24T07:43:52.775Z,484
2016-11-24T07:45:03.137Z,524
2016-11-24T07:46:13.482Z,552
2016-11-24T07:47:23.514Z,572
2016-11-24T07:48:33.536Z,572
2016-11-24T07:49:43.898Z,600
2016-11-24T07:50:53.621Z,644
2016-11-24T07:52:03.356Z,660
2016-11-24T07:53:13.702Z,684
2016-11-24T07:54:23.738Z,712
2016-11-24T07:55:34.081Z,712
2016-11-24T07:56:44.106Z,716
2016-11-24T07:57:54.149Z,756
2016-11-24T07:59:04.536Z,780
2016-11-24T08:00:14.892Z,812
2016-11-24T08:01:24.651Z,812
2016-11-24T08:02:35.016Z,808
2016-11-24T08:03:45.337Z,868
2016-11-24T08:04:55.370Z,892
2016-11-24T08:06:05.399Z,856
2016-11-24T08:07:15.433Z,840
2016-11-24T08:08:25.770Z,856
2016-11-24T08:09:35.511Z,868
2016-11-24T08:10:45.275Z,856
2016-11-24T08:11:54.684Z,816
2016-11-24T08:13:05.052Z,792
2016-11-24T08:14:15.386Z,788
2016-11-24T08:15:25.405Z,800
2016-11-24T08:16:35.771Z,800
2016-11-24T08:17:45.493Z,792
2016-11-24T08:18:55.834Z,772
2016-11-24T08:20:05.553Z,784
2016-11-24T08:21:15.575Z,812
2016-11-24T08:22:25.908Z,836
2016-11-24T08:23:35.951Z,840
2016-11-24T08:24:45.972Z,812
2016-11-24T08:25:55.375Z,808
2016-11-24T08:27:05.729Z,884
2016-11-24T08:28:16.074Z,868
2016-11-24T08:29:26.105Z,808
2016-11-24T08:30:36.148Z,816
2016-11-24T08:31:46.199Z,884
2016-11-24T08:32:56.536Z,892
2016-11-24T08:34:06.900Z,856
2016-11-24T08:35:16.924Z,848
2016-11-24T08:36:26.349Z,888
2016-11-24T08:37:36.712Z,896
2016-11-24T08:38:47.084Z,900
2016-11-24T08:39:57.124Z,936
2016-11-24T08:41:07.192Z,1004
2016-11-24T08:42:17.222Z,1020
2016-11-24T08:43:27.259Z,992
2016-11-24T08:44:37.627Z,1012
2016-11-24T08:45:47.994Z,1072
2016-11-24T08:46:58.352Z,1108
2016-11-24T08:48:08.379Z,1128
2016-11-24T08:49:18.430Z,1084
2016-11-24T08:50:28.462Z,1076
2016-11-24T08:51:38.180Z,1088
2016-11-24T08:52:48.224Z,1156
2016-11-24T08:53:57.931Z,1232
2016-11-24T08:55:07.655Z,1180
2016-11-24T08:56:18.019Z,1188
2016-11-24T08:57:28.373Z,1212
2016-11-24T08:58:38.734Z,1224
2016-11-24T08:59:48.454Z,1260
2016-11-24T09:00:58.496Z,1292
2016-11-24T09:02:08.869Z,1324
2016-11-24T09:03:19.237Z,1304
2016-11-24T09:04:29.629Z,1296
2016-11-24T09:05:39.970Z,1292
2016-11-24T09:06:50.006Z,1376
2016-11-24T09:08:00.052Z,1328
2016-11-24T09:09:10.095Z,1220
2016-11-24T09:10:20.129Z,1288
2016-11-24T09:11:30.167Z,1316
2016-11-24T09:12:40.518Z,1364
2016-11-24T09:13:50.252Z,1472
2016-11-24T09:14:59.962Z,1596
2016-11-24T09:16:10.336Z,1616
2016-11-24T09:17:20.397Z,1552
2016-11-24T09:18:30.785Z,1512
2016-11-24T09:19:41.153Z,1524
2016-11-24T09:20:51.530Z,1524
2016-11-24T09:22:01.904Z,1520
2016-11-24T09:23:11.937Z,1500
2016-11-24T09:24:22.316Z,1516
2016-11-24T09:25:32.679Z,1528
2016-11-24T09:26:42.731Z,1612
2016-11-24T09:27:52.766Z,1588
2016-11-24T09:29:02.856Z,1552
2016-11-24T09:30:13.209Z,1560
2016-11-24T09:31:22.955Z,1540
2016-11-24T09:32:32.991Z,1520
2016-11-24T09:33:43.328Z,1564
2016-11-24T09:34:53.048Z,1560
2016-11-24T09:36:02.760Z,1532
2016-11-24T09:37:13.122Z,1492
2016-11-24T09:38:23.186Z,1516
2016-11-24T09:39:33.217Z,1572
2016-11-24T09:40:43.257Z,1648
2016-11-24T09:41:53.022Z,1748
2016-11-24T09:43:03.070Z,1796
2016-11-24T09:44:13.130Z,1764
2016-11-24T09:45:22.574Z,1712
2016-11-24T09:46:32.516Z,1756
2016-11-24T09:47:42.882Z,1744
2016-11-24T09:48:52.929Z,1708
2016-11-24T09:50:03.284Z,1708
2016-11-24T09:51:13.668Z,1612
2016-11-24T09:52:23.715Z,1560
2016-11-24T09:53:34.106Z,1692
2016-11-24T09:54:44.157Z,1744
2016-11-24T09:55:54.204Z,1696
2016-11-24T09:57:03.930Z,1568
2016-11-24T09:58:13.958Z,1472
2016-11-24T09:59:24.312Z,1472
2016-11-24T10:00:34.372Z,1516
2016-11-24T10:01:44.759Z,1500
2016-11-24T10:02:55.136Z,1444
2016-11-24T10:04:04.871Z,1360
2016-11-24T10:05:14.925Z,1404
2016-11-24T10:06:24.965Z,1512
2016-11-24T10:07:35.314Z,1604
2016-11-24T10:08:44.756Z,1668
2016-11-24T10:09:54.800Z,1688
2016-11-24T10:11:05.165Z,1712
2016-11-24T10:12:15.562Z,1636
2016-11-24T10:13:25.929Z,1628
2016-11-24T10:14:35.979Z,1600
2016-11-24T10:15:45.732Z,1700
2016-11-24T10:16:55.135Z,1808
2016-11-24T10:18:05.512Z,1784
2016-11-24T10:19:14.945Z,1672
2016-11-24T10:20:24.980Z,1692
2016-11-24T10:21:35.341Z,1736
2016-11-24T10:22:45.372Z,1768
2016-11-24T10:23:55.710Z,1776
2016-11-24T10:25:05.745Z,1776
2016-11-24T10:26:15.790Z,1720
2016-11-24T10:27:26.140Z,1608
2016-11-24T10:28:35.865Z,1464
2016-11-24T10:29:46.216Z,1360
2016-11-24T10:30:56.295Z,1292
2016-11-24T10:32:06.626Z,1172
2016-11-24T10:33:16.652Z,1024
2016-11-24T10:34:26.678Z,1028
2016-11-24T10:35:37.028Z,1024
2016-11-24T10:36:47.115Z,1012
2016-11-24T10:37:57.195Z,992
2016-11-24T10:39:06.920Z,968
2016-11-24T10:40:17.283Z,952
2016-11-24T10:41:27.662Z,960
2016-11-24T10:42:37.723Z,992
2016-11-24T10:43:47.753Z,1032
2016-11-24T10:44:58.120Z,1052
2016-11-24T10:46:08.161Z,1024
2016-11-24T10:47:18.527Z,1028
2016-11-24T10:48:28.889Z,1004
2016-11-24T10:49:39.240Z,948
2016-11-24T10:50:48.992Z,968
2016-11-24T10:51:59.040Z,996
2016-11-24T10:53:09.111Z,1024
2016-11-24T10:54:19.458Z,1024
2016-11-24T10:55:29.503Z,1012
2016-11-24T10:56:39.534Z,1048
2016-11-24T10:57:49.868Z,1136
2016-11-24T11:05:21.263Z,1184
2016-11-24T11:06:31.607Z,1232
2016-11-24T11:07:41.315Z,1220
2016-11-24T11:08:51.685Z,1272
2016-11-24T11:10:01.715Z,1344
2016-11-24T11:11:11.761Z,1432
2016-11-24T11:12:21.534Z,1552
2016-11-24T11:13:31.550Z,1628
2016-11-24T11:14:41.593Z,1656
2016-11-24T11:15:51.972Z,1632
2016-11-24T11:17:01.999Z,1520
2016-11-24T11:18:12.073Z,1412
2016-11-24T11:19:22.422Z,1320
2016-11-24T11:20:32.467Z,1292
2016-11-24T11:21:42.811Z,1340
2016-11-24T11:22:53.382Z,1300
2016-11-24T11:24:03.113Z,1328
2016-11-24T11:25:13.158Z,1288
2016-11-24T11:26:23.196Z,1272
2016-11-24T11:27:32.937Z,1248
2016-11-24T11:28:43.304Z,1252
2016-11-24T11:29:53.640Z,1312
2016-11-24T11:31:03.688Z,1284
2016-11-24T11:32:13.411Z,1208
2016-11-24T11:33:23.479Z,1192
2016-11-24T11:34:33.818Z,1224
2016-11-24T11:35:43.543Z,1172
2016-11-24T11:36:53.572Z,1116
2016-11-24T11:38:02.987Z,1088
2016-11-24T11:39:12.697Z,1072
2016-11-24T11:40:22.421Z,1076
2016-11-24T11:41:32.477Z,1088
2016-11-24T11:42:42.513Z,1076
2016-11-24T11:43:52.880Z,1044
2016-11-24T11:45:02.919Z,1032
2016-11-24T11:46:12.941Z,1060
2016-11-24T11:47:23.297Z,1056
2016-11-24T11:48:33.327Z,1060
2016-11-24T11:49:43.683Z,1052
2016-11-24T11:50:53.421Z,1008
2016-11-24T11:52:03.457Z,976
2016-11-24T11:53:13.866Z,948
2016-11-24T11:54:23.882Z,956
2016-11-24T11:55:33.952Z,976
2016-11-24T11:56:44.304Z,1032
2016-11-24T11:57:54.046Z,1100
2016-11-24T11:59:04.093Z,1128
2016-11-24T12:00:14.125Z,1148
2016-11-24T12:01:24.164Z,1156
2016-11-24T12:02:33.888Z,1124
2016-11-24T12:03:43.624Z,1040
2016-11-24T12:04:53.690Z,992
2016-11-24T12:06:03.769Z,1000
2016-11-24T12:07:14.120Z,988
2016-11-24T12:08:24.464Z,984
2016-11-24T12:09:34.503Z,980
2016-11-24T12:10:44.540Z,900
2016-11-24T12:11:54.600Z,844
2016-11-24T12:13:04.992Z,900
2016-11-24T12:14:15.024Z,964
2016-11-24T12:15:25.392Z,1008
2016-11-24T12:16:35.741Z,996
2016-11-24T12:17:45.450Z,940
2016-11-24T12:18:55.497Z,896
2016-11-24T12:20:05.196Z,836
2016-11-24T12:21:15.591Z,776
2016-11-24T12:22:25.617Z,804
2016-11-24T12:23:35.967Z,824
2016-11-24T12:24:46.364Z,792
2016-11-24T12:25:56.100Z,760
2016-11-24T12:27:06.439Z,752
2016-11-24T12:28:16.821Z,724
2016-11-24T12:29:27.165Z,704
2016-11-24T12:30:36.576Z,688
2016-11-24T12:31:46.964Z,672
2016-11-24T12:32:57.313Z,656
2016-11-24T12:34:07.648Z,660
2016-11-24T12:35:17.987Z,696
2016-11-24T12:36:27.709Z,764
2016-11-24T12:37:37.747Z,808
2016-11-24T12:38:47.791Z,820
2016-11-24T12:39:58.136Z,840
2016-11-24T12:41:08.510Z,856
2016-11-24T12:42:18.546Z,872
2016-11-24T12:43:28.266Z,868
2016-11-24T12:44:38.617Z,888
2016-11-24T12:45:48.344Z,908
2016-11-24T12:46:58.390Z,960
2016-11-24T12:48:08.727Z,1020
2016-11-24T12:49:19.093Z,1044
2016-11-24T12:50:28.817Z,1080
2016-11-24T12:51:38.845Z,1084
2016-11-24T12:52:48.867Z,1048
2016-11-24T12:53:58.909Z,984
2016-11-24T12:55:08.961Z,936
2016-11-24T12:56:18.908Z,892
2016-11-24T12:57:29.006Z,876
2016-11-24T12:58:39.429Z,840
2016-11-24T12:59:49.181Z,832
2016-11-24T13:00:59.254Z,840
2016-11-24T13:02:11.855Z,852
2016-11-24T13:03:24.003Z,840
2016-11-24T13:04:36.432Z,804
2016-11-24T13:05:48.347Z,760
2016-11-24T13:07:02.621Z,740
2016-11-24T13:08:15.526Z,764
2016-11-24T13:09:28.469Z,760
2016-11-24T13:10:40.781Z,716
2016-11-24T13:11:54.956Z,660
2016-11-24T13:13:09.365Z,636
2016-11-24T13:14:22.113Z,624
2016-11-24T13:15:34.847Z,616
2016-11-24T13:16:48.321Z,584
2016-11-24T13:18:01.839Z,524
2016-11-24T13:19:15.022Z,472
2016-11-24T13:20:28.063Z,440
2016-11-24T13:21:41.176Z,424
2016-11-24T13:22:53.861Z,412
2016-11-24T13:24:07.723Z,396
2016-11-24T13:25:20.780Z,380
2016-11-24T13:26:33.469Z,376
2016-11-24T13:27:46.487Z,372
2016-11-24T13:28:58.974Z,360
2016-11-24T13:30:10.932Z,340
2016-11-24T13:31:20.747Z,320
2016-11-24T13:32:30.837Z,304
2016-11-24T13:33:41.031Z,304
2016-11-24T13:34:51.552Z,316
2016-11-24T13:36:01.808Z,324
2016-11-24T13:37:11.982Z,332
2016-11-24T13:38:22.401Z,320
2016-11-24T13:39:32.923Z,316
2016-11-24T13:40:43.067Z,320
2016-11-24T13:41:53.152Z,312
2016-11-24T13:43:03.699Z,304
2016-11-24T13:44:13.878Z,308
2016-11-24T13:45:23.634Z,316
2016-11-24T13:46:34.120Z,308
2016-11-24T13:47:43.924Z,304
2016-11-24T13:48:54.011Z,292
2016-11-24T13:50:04.086Z,288
2016-11-24T13:51:14.549Z,288
2016-11-24T13:52:24.630Z,284
2016-11-24T13:53:34.699Z,276
2016-11-24T13:54:44.745Z,272
2016-11-24T13:55:54.776Z,260
2016-11-24T13:57:05.232Z,256
2016-11-24T13:58:15.363Z,260
2016-11-24T13:59:25.419Z,260
2016-11-24T14:00:35.275Z,264
2016-11-24T14:01:45.426Z,260
2016-11-24T14:02:55.156Z,244
2016-11-24T14:04:05.568Z,244
2016-11-24T14:05:15.956Z,236
2016-11-24T14:06:26.400Z,228
2016-11-24T14:07:36.479Z,220
2016-11-24T14:08:46.564Z,212
2016-11-24T14:09:56.673Z,208
2016-11-24T14:11:06.415Z,204
2016-11-24T14:12:16.199Z,204
2016-11-24T14:13:26.533Z,208
2016-11-24T14:14:36.923Z,212
2016-11-24T14:15:46.982Z,208
2016-11-24T14:16:56.751Z,212
2016-11-24T14:18:07.494Z,204
2016-11-24T14:19:17.319Z,196
2016-11-24T14:20:27.765Z,184
2016-11-24T14:21:37.978Z,176
2016-11-24T14:22:48.425Z,176
2016-11-24T14:23:58.231Z,172
2016-11-24T14:25:08.292Z,172
2016-11-24T14:26:18.352Z,164
2016-11-24T14:27:29.673Z,160
2016-11-24T14:28:41.145Z,168
2016-11-24T14:29:52.068Z,172
2016-11-24T14:31:04.303Z,176
2016-11-24T14:32:16.469Z,176
2016-11-24T14:33:28.199Z,164
2016-11-24T14:34:41.098Z,152
2016-11-24T14:35:53.340Z,140
2016-11-24T14:37:04.284Z,128
2016-11-24T14:38:14.807Z,124
2016-11-24T14:39:27.294Z,116
2016-11-24T14:40:40.151Z,108
2016-11-24T14:41:53.248Z,104
2016-11-24T14:43:04.719Z,100
2016-11-24T14:44:16.099Z,96
2016-11-24T14:45:27.911Z,92
2016-11-24T14:46:40.303Z,88
2016-11-24T14:47:53.104Z,80
2016-11-24T14:49:04.573Z,76
2016-11-24T14:50:16.227Z,76
2016-11-24T14:51:28.069Z,68
2016-11-24T14:52:40.692Z,68
2016-11-24T14:53:53.415Z,60
2016-11-24T14:55:06.610Z,56
2016-11-24T14:56:18.101Z,52
2016-11-24T14:57:29.548Z,48
2016-11-24T14:58:41.285Z,40
2016-11-24T14:59:53.481Z,36
2016-11-24T15:01:05.883Z,32
2016-11-24T15:02:16.892Z,28
2016-11-24T15:03:27.622Z,28
2016-11-24T15:04:39.877Z,24
2016-11-24T15:05:50.530Z,20
2016-11-24T15:07:00.568Z,20
2016-11-24T15:08:10.925Z,16
2016-11-24T15:09:20.958Z,16
2016-11-24T15:10:31.320Z,12
2016-11-24T15:11:41.706Z,12
2016-11-24T15:12:52.038Z,8
2016-11-24T15:14:02.369Z,8
2016-11-24T15:15:12.693Z,4
2016-11-24T15:16:23.068Z,8
2016-11-24T15:17:32.505Z,4
2016-11-24T15:18:42.588Z,4
2016-11-24T15:19:52.653Z,8
2016-11-24T15:21:02.990Z,4
2016-11-24T15:22:13.343Z,4
2016-11-24T15:23:23.679Z,0
2016-11-24T15:24:34.020Z,0
2016-11-24T15:25:43.777Z,4
2016-11-24T15:26:53.820Z,4
2016-11-24T15:28:04.190Z,4
2016-11-24T15:29:14.233Z,4
2016-11-24T15:30:24.570Z,0
2016-11-24T15:31:34.303Z,0
2016-11-24T15:32:44.335Z,0
2016-11-24T15:33:54.713Z,0
2016-11-24T15:35:05.084Z,0
2016-11-24T15:36:15.135Z,0
2016-11-24T15:37:25.480Z,0
2016-11-24T15:38:35.825Z,0
2016-11-24T15:39:46.191Z,0
2016-11-24T15:40:56.524Z,0
2016-11-24T15:42:06.602Z,0
2016-11-24T15:43:16.637Z,0
2016-11-24T15:44:26.664Z,0
2016-11-24T15:45:36.710Z,0
2016-11-24T15:46:47.048Z,0
2016-11-24T15:47:56.463Z,0
2016-11-24T15:49:06.175Z,0
2016-11-24T15:50:15.891Z,0
2016-11-24T15:51:25.918Z,0
2016-11-24T15:52:35.631Z,0
2016-11-24T15:53:45.964Z,0
2016-11-24T15:54:56.315Z,0
2016-11-24T15:56:06.652Z,0
2016-11-24T15:57:16.995Z,0
2016-11-24T15:58:27.368Z,0
2016-11-24T15:59:37.718Z,0
2016-11-24T16:00:47.750Z,0
2016-11-24T16:01:57.478Z,0
2016-11-24T16:03:07.512Z,0
2016-11-24T16:04:17.867Z,0
2016-11-24T16:05:27.894Z,0
2016-11-24T16:06:37.618Z,0
2016-11-24T16:07:47.344Z,0
2016-11-24T16:08:57.705Z,0
2016-11-24T16:10:08.031Z,0
2016-11-24T16:11:17.453Z,0
2016-11-24T16:12:27.226Z,0
2016-11-24T16:13:36.995Z,0
2016-11-24T16:14:47.024Z,0
2016-11-24T16:15:57.056Z,0
2016-11-24T16:17:07.408Z,0
2016-11-24T16:18:16.822Z,0
2016-11-24T16:19:27.171Z,0
2016-11-24T16:20:37.507Z,0
2016-11-24T16:21:47.548Z,0
2016-11-24T16:22:57.890Z,0
2016-11-24T16:24:07.623Z,0
2016-11-24T16:25:17.958Z,0
2016-11-24T16:26:28.322Z,0
2016-11-24T16:27:38.362Z,0
2016-11-24T16:28:47.771Z,0
2016-11-24T16:29:58.112Z,0
2016-11-24T16:31:08.153Z,0
2016-11-24T16:32:17.874Z,0
2016-11-24T16:33:27.891Z,0
2016-11-24T16:34:37.917Z,0
2016-11-24T16:35:47.958Z,0
2016-11-24T16:36:57.989Z,0
2016-11-24T16:38:08.019Z,0
2016-11-24T16:39:18.053Z,0
2016-11-24T16:40:28.395Z,0
2016-11-24T16:41:38.127Z,0
2016-11-24T16:42:48.176Z,0
2016-11-24T16:43:58.500Z,0
2016-11-24T16:45:08.217Z,0
2016-11-24T16:46:18.259Z,0
2016-11-24T16:47:28.616Z,0
2016-11-24T16:48:38.652Z,0
2016-11-24T16:49:48.979Z,0
2016-11-24T16:50:59.031Z,0
2016-11-24T16:52:09.386Z,0
2016-11-24T16:53:19.752Z,0
2016-11-24T16:54:30.115Z,0
2016-11-24T16:55:40.507Z,0
2016-11-24T16:56:50.228Z,0
2016-11-24T16:57:59.995Z,0
2016-11-24T16:59:10.031Z,0
2016-11-24T17:00:20.078Z,0
2016-11-24T17:01:29.490Z,0
2016-11-24T17:02:39.536Z,0
2016-11-24T17:03:49.581Z,0
2016-11-24T17:04:59.303Z,0
2016-11-24T17:06:09.647Z,0
2016-11-24T17:07:19.692Z,0
2016-11-24T17:08:30.065Z,0
2016-11-24T17:09:40.099Z,0